Time;durP1;ratioP1;P1;durP2;ratioP2;P2;SDS_P1;SDS_P2;PMS_P1;PMS_P2;Temp;Humidity;BMP_temperature;BMP_pressure;BME280_temperature;BME280_humidity;BME280_pressure;Samples;Min_cycle;Max_cycle;Signal;HPM_P1;HPM_P2
2022/07/08 00:00:45;;;;;;;0.22;0.22;;;;;;;18.89;79.60;101777.09;4988119;28;20036;-60
2022/07/08 00:03:11;;;;;;;0.00;0.00;;;;;;;18.93;79.54;101772.41;4983621;28;20040;-61
2022/07/08 00:05:38;;;;;;;1.30;1.20;;;;;;;18.91;79.26;101772.78;4984094;28;20026;-60
2022/07/08 00:08:04;;;;;;;0.10;0.10;;;;;;;18.89;79.41;101772.38;4980634;28;20125;-59
2022/07/08 00:10:30;;;;;;;0.13;0.10;;;;;;;18.87;78.76;101779.41;5001372;28;20125;-60
2022/07/08 00:12:55;;;;;;;0.30;0.08;;;;;;;18.90;79.05;101793.09;4988116;28;20318;-59
2022/07/08 00:15:21;;;;;;;0.00;0.00;;;;;;;18.83;78.86;101786.81;4987015;28;20054;-59
2022/07/08 00:17:47;;;;;;;0.00;0.00;;;;;;;18.73;79.20;101782.84;4983566;28;20528;-59
2022/07/08 00:20:13;;;;;;;0.20;0.20;;;;;;;18.78;79.11;101782.47;4970196;28;20382;-59
2022/07/08 00:22:38;;;;;;;0.00;0.00;;;;;;;18.82;78.57;101790.69;4978725;28;20049;-59
2022/07/08 00:25:05;;;;;;;0.08;0.00;;;;;;;18.81;78.86;101800.06;4985130;28;20034;-58
2022/07/08 00:27:30;;;;;;;0.10;0.10;;;;;;;18.76;79.37;101794.94;4984550;28;20045;-57
2022/07/08 00:29:56;;;;;;;0.00;0.00;;;;;;;18.79;78.90;101796.91;4982884;28;20042;-59
2022/07/08 00:32:22;;;;;;;0.52;0.25;;;;;;;18.82;79.03;101801.59;4980238;28;20026;-59
2022/07/08 00:34:47;;;;;;;0.10;0.10;;;;;;;18.84;78.74;101794.59;4978063;28;20034;-60
2022/07/08 00:37:13;;;;;;;0.13;0.10;;;;;;;18.78;78.79;101795.34;4988058;28;20452;-59
2022/07/08 00:39:38;;;;;;;0.00;0.00;;;;;;;18.83;78.38;101798.50;4983177;28;20116;-59
2022/07/08 00:42:05;;;;;;;0.13;0.13;;;;;;;18.80;78.19;101788.34;4987387;28;20066;-59
2022/07/08 00:44:31;;;;;;;0.10;0.10;;;;;;;18.74;78.43;101803.53;4983033;28;20072;-59
2022/07/08 00:46:56;;;;;;;0.13;0.00;;;;;;;18.76;78.44;101803.13;4988706;28;20034;-58
2022/07/08 00:49:23;;;;;;;0.00;0.00;;;;;;;18.73;78.12;101806.63;4986360;28;20038;-58
2022/07/08 00:51:49;;;;;;;0.00;0.00;;;;;;;18.71;77.97;101801.56;4989435;28;20109;-59
2022/07/08 00:54:17;;;;;;;0.00;0.00;;;;;;;18.69;78.50;101800.38;4988205;28;20080;-60
2022/07/08 00:56:43;;;;;;;0.10;0.10;;;;;;;18.65;78.79;101808.53;4982878;28;20027;-58
2022/07/08 00:59:09;;;;;;;0.03;0.03;;;;;;;18.63;78.97;101799.94;4985135;28;20027;-58
2022/07/08 01:01:35;;;;;;;0.00;0.00;;;;;;;18.66;78.71;101803.88;4984518;28;20125;-58
2022/07/08 01:04:02;;;;;;;0.00;0.00;;;;;;;18.66;78.46;101806.59;4986877;28;20026;-57
2022/07/08 01:06:28;;;;;;;0.30;0.17;;;;;;;18.64;78.61;101812.41;4991221;28;20057;-60
2022/07/08 01:08:54;;;;;;;1.08;0.35;;;;;;;18.56;79.11;101810.81;4990018;28;20065;-59
2022/07/08 01:11:19;;;;;;;0.22;0.10;;;;;;;18.54;78.75;101812.38;4986152;28;20443;-59
2022/07/08 01:13:47;;;;;;;1.80;0.82;;;;;;;18.54;78.55;101802.22;4984509;28;20034;-59
2022/07/08 01:16:13;;;;;;;0.08;0.08;;;;;;;18.55;78.93;101803.78;4989780;28;20106;-58
2022/07/08 01:18:40;;;;;;;0.17;0.13;;;;;;;18.52;78.45;101804.56;4991264;28;20050;-60
2022/07/08 01:21:06;;;;;;;0.00;0.00;;;;;;;18.49;78.00;101805.31;4990951;28;20042;-59
2022/07/08 01:23:31;;;;;;;1.42;0.90;;;;;;;18.52;78.00;101807.31;4988740;28;20117;-60
2022/07/08 01:25:58;;;;;;;0.08;0.08;;;;;;;18.55;77.83;101801.06;4992394;28;20105;-57
2022/07/08 01:28:24;;;;;;;0.35;0.35;;;;;;;18.55;77.75;101811.19;4991495;28;20038;-60
2022/07/08 01:30:50;;;;;;;0.00;0.00;;;;;;;18.51;78.05;101804.94;4991159;28;20477;-60
2022/07/08 01:33:16;;;;;;;0.10;0.10;;;;;;;18.48;78.33;101801.03;4990064;28;20038;-59
2022/07/08 01:35:41;;;;;;;0.10;0.10;;;;;;;18.50;78.32;101803.38;4986086;28;20349;-60
2022/07/08 01:38:07;;;;;;;0.10;0.10;;;;;;;18.46;79.00;101803.34;4984927;28;20084;-60
2022/07/08 01:40:33;;;;;;;0.00;0.00;;;;;;;18.46;79.58;101802.56;4989387;28;20513;-60
2022/07/08 01:42:58;;;;;;;0.57;0.30;;;;;;;18.46;78.90;101802.56;4989472;28;20030;-60
2022/07/08 01:45:24;;;;;;;0.00;0.00;;;;;;;18.46;78.13;101810.75;4989021;28;20437;-60
2022/07/08 01:47:49;;;;;;;0.73;0.30;;;;;;;18.48;78.23;101808.44;4992150;28;20030;-60
2022/07/08 01:50:15;;;;;;;2.28;0.85;;;;;;;18.43;78.30;101822.41;4991229;28;20042;-60
2022/07/08 01:52:41;;;;;;;0.10;0.10;;;;;;;18.42;78.99;101818.09;4986099;28;20055;-60
2022/07/08 01:55:07;;;;;;;0.05;0.05;;;;;;;18.43;78.46;101812.28;4993658;28;20042;-60
2022/07/08 01:57:34;;;;;;;0.10;0.10;;;;;;;18.41;78.51;101819.25;4977255;28;20026;-61
2022/07/08 01:59:59;;;;;;;0.00;0.00;;;;;;;18.39;78.33;101821.59;4991321;28;20081;-58
2022/07/08 02:02:25;;;;;;;0.20;0.03;;;;;;;18.40;78.19;101820.41;4990420;28;20027;-58
2022/07/08 02:04:50;;;;;;;0.15;0.15;;;;;;;18.37;78.08;101823.91;4983746;28;20027;-61
2022/07/08 02:07:16;;;;;;;0.00;0.00;;;;;;;18.38;78.01;101818.06;4986515;28;20195;-59
2022/07/08 02:09:42;;;;;;;0.10;0.10;;;;;;;18.37;78.19;101813.75;4989199;28;20041;-61
2022/07/08 02:12:21;;;;;;;0.05;0.05;;;;;;;18.39;78.19;101818.88;4991554;28;20120;-61
2022/07/08 02:14:48;;;;;;;0.13;0.13;;;;;;;18.31;78.75;101819.97;4977122;28;20034;-59
2022/07/08 02:17:15;;;;;;;0.30;0.30;;;;;;;18.32;78.76;101822.31;4985347;28;20127;-62
2022/07/08 02:19:41;;;;;;;0.00;0.00;;;;;;;18.31;78.75;101825.44;4988664;28;20030;-56
2022/07/08 02:22:07;;;;;;;0.70;0.70;;;;;;;18.36;78.57;101822.34;4990549;28;20034;-59
2022/07/08 02:24:34;;;;;;;0.10;0.10;;;;;;;18.35;77.30;101818.81;4985008;28;20056;-61
2022/07/08 02:27:00;;;;;;;0.30;0.30;;;;;;;18.29;76.66;101822.28;4991287;28;20038;-60
2022/07/08 02:29:25;;;;;;;0.22;0.22;;;;;;;18.33;75.17;101820.38;4990734;28;20364;-61
2022/07/08 02:31:51;;;;;;;1.83;0.55;;;;;;;18.30;75.65;101812.94;4988181;28;20496;-57
2022/07/08 02:34:17;;;;;;;0.40;0.15;;;;;;;18.31;75.78;101814.50;4987653;28;20045;-62
2022/07/08 02:36:43;;;;;;;0.10;0.10;;;;;;;18.35;75.73;101823.50;4990320;28;20026;-58
2022/07/08 02:39:08;;;;;;;0.70;0.70;;;;;;;18.33;74.79;101823.88;4986771;28;20448;-56
2022/07/08 02:41:34;;;;;;;0.00;0.00;;;;;;;18.26;74.46;101823.81;4988188;28;20521;-60
2022/07/08 02:43:59;;;;;;;0.00;0.00;;;;;;;18.28;74.62;101826.97;4990874;28;20404;-62
2022/07/08 02:46:25;;;;;;;0.00;0.00;;;;;;;18.29;74.71;101839.41;4988558;28;20140;-62
2022/07/08 02:48:51;;;;;;;0.00;0.00;;;;;;;18.28;74.64;101837.06;4990648;28;20023;-58
2022/07/08 02:51:16;;;;;;;0.30;0.20;;;;;;;18.28;73.67;101842.53;4990194;28;20480;-61
2022/07/08 02:53:42;;;;;;;0.28;0.25;;;;;;;18.26;73.47;101845.66;4989811;28;20422;-61
2022/07/08 02:56:07;;;;;;;0.30;0.30;;;;;;;18.26;73.30;101850.31;4986766;28;20393;-60
2022/07/08 02:58:33;;;;;;;0.00;0.00;;;;;;;18.19;73.18;101844.81;4983974;28;20044;-59
2022/07/08 03:00:59;;;;;;;0.00;0.00;;;;;;;18.16;73.16;101845.53;4987830;28;20160;-58
2022/07/08 03:03:24;;;;;;;0.10;0.10;;;;;;;18.19;73.34;101847.53;4990046;28;20034;-61
2022/07/08 03:05:50;;;;;;;0.10;0.10;;;;;;;18.25;72.43;101862.38;4990572;28;20041;-60
2022/07/08 03:08:16;;;;;;;1.02;0.88;;;;;;;18.18;72.55;101867.75;4986234;28;20048;-60
2022/07/08 03:11:02;;;;;;;0.00;0.00;;;;;;;18.18;73.28;101854.91;4986841;28;20420;-62
2022/07/08 03:13:27;;;;;;;0.17;0.13;;;;;;;18.20;73.52;101860.00;4943227;29;20050;-61
2022/07/08 03:15:53;;;;;;;0.10;0.10;;;;;;;18.15;73.85;101860.34;4948200;29;20051;-61
2022/07/08 03:18:18;;;;;;;0.00;0.00;;;;;;;18.17;73.29;101861.56;4948441;29;20055;-62
2022/07/08 03:20:44;;;;;;;0.03;0.03;;;;;;;18.00;74.29;101857.47;4932121;29;20046;-56
2022/07/08 03:23:09;;;;;;;2.03;0.75;;;;;;;18.07;74.48;101859.50;4948830;29;20043;-58
2022/07/08 03:25:35;;;;;;;0.10;0.10;;;;;;;18.08;74.53;101852.13;4947865;29;20082;-61
2022/07/08 03:28:01;;;;;;;0.03;0.03;;;;;;;18.15;74.35;101849.44;4946635;29;20049;-57
2022/07/08 03:30:27;;;;;;;0.30;0.30;;;;;;;18.13;73.80;101858.00;4946788;29;20043;-57
2022/07/08 03:32:53;;;;;;;0.10;0.10;;;;;;;18.01;73.84;101850.88;4943854;29;20692;-59
2022/07/08 03:35:19;;;;;;;0.00;0.00;;;;;;;18.07;73.67;101861.44;4944558;28;20375;-56
2022/07/08 03:37:45;;;;;;;0.10;0.10;;;;;;;18.12;73.86;101855.66;4946403;29;20135;-58
2022/07/08 03:42:56;;;;;;;0.10;0.10;;;;;;;17.98;74.88;101857.06;4944880;29;20130;-59
2022/07/08 03:45:22;;;;;;;0.10;0.10;;;;;;;18.06;74.54;101863.38;4946991;29;20031;-57
2022/07/08 03:47:48;;;;;;;0.10;0.10;;;;;;;18.03;75.14;101858.69;4946951;29;20127;-58
2022/07/08 03:50:14;;;;;;;3.22;1.10;;;;;;;18.09;74.90;101856.41;4964351;28;20038;-57
2022/07/08 03:52:40;;;;;;;0.10;0.10;;;;;;;18.06;75.35;101868.06;4988897;28;20382;-59
2022/07/08 03:55:07;;;;;;;0.65;0.05;;;;;;;18.04;75.46;101866.47;4989398;28;20113;-55
2022/07/08 03:57:32;;;;;;;0.10;0.10;;;;;;;18.09;75.51;101864.56;4987534;28;20023;-60
2022/07/08 03:59:58;;;;;;;3.03;0.00;;;;;;;18.09;75.69;101870.03;4984693;28;20626;-60
2022/07/08 04:02:24;;;;;;;0.00;0.00;;;;;;;18.14;75.94;101875.16;4985411;28;20510;-58
2022/07/08 04:04:50;;;;;;;0.13;0.13;;;;;;;18.14;75.82;101873.19;4985585;28;20030;-57
2022/07/08 04:07:16;;;;;;;0.00;0.00;;;;;;;18.20;74.94;101871.69;4981275;28;20113;-61
2022/07/08 04:09:42;;;;;;;0.10;0.10;;;;;;;18.20;74.18;101887.25;4979214;28;20457;-59
2022/07/08 04:12:08;;;;;;;0.05;0.05;;;;;;;18.19;74.85;101894.69;4978947;28;20675;-61
2022/07/08 04:19:50;;;;;;;0.22;0.22;;;;;;;18.12;75.33;101900.06;4946086;28;19941;-60
2022/07/08 04:22:16;;;;;;;0.30;0.30;;;;;;;18.13;75.64;101889.94;4957419;28;20408;-60
2022/07/08 04:24:41;;;;;;;0.20;0.10;;;;;;;18.16;75.93;101897.34;4962448;28;20066;-60
2022/07/08 04:27:07;;;;;;;0.05;0.05;;;;;;;18.10;76.16;101901.59;4959812;28;20025;-60
2022/07/08 04:29:33;;;;;;;0.10;0.10;;;;;;;18.14;76.13;101900.47;4959674;28;20066;-60
2022/07/08 04:31:59;;;;;;;0.28;0.28;;;;;;;18.15;77.53;101899.31;4962124;28;20046;-60
2022/07/08 04:34:24;;;;;;;0.00;0.00;;;;;;;18.20;77.49;101909.88;4964751;28;20037;-60
2022/07/08 04:36:50;;;;;;;0.15;0.15;;;;;;;18.27;76.89;101917.34;4957696;28;20043;-60
2022/07/08 04:39:15;;;;;;;0.13;0.10;;;;;;;18.29;76.46;101913.06;4961561;28;20031;-60
2022/07/08 04:41:41;;;;;;;0.10;0.10;;;;;;;18.37;76.90;101916.66;4968462;28;20026;-61
2022/07/08 04:44:06;;;;;;;0.00;0.00;;;;;;;18.43;75.92;101918.69;4967532;28;20039;-60
2022/07/08 04:46:32;;;;;;;0.47;0.47;;;;;;;18.49;76.08;101919.13;4964327;28;20097;-60
2022/07/08 04:48:58;;;;;;;0.00;0.00;;;;;;;18.53;76.28;101915.28;4964874;28;20030;-61
2022/07/08 04:51:23;;;;;;;0.25;0.10;;;;;;;18.47;75.43;101911.31;4963655;28;20056;-60
2022/07/08 04:53:49;;;;;;;0.05;0.00;;;;;;;18.43;75.17;101924.16;4963473;28;20038;-59
2022/07/08 04:56:14;;;;;;;0.00;0.00;;;;;;;18.39;76.29;101915.13;4965573;28;20126;-59
2022/07/08 04:58:40;;;;;;;0.00;0.00;;;;;;;18.38;76.71;101921.75;4965268;28;20034;-60
2022/07/08 05:01:06;;;;;;;0.00;0.00;;;;;;;18.37;75.95;101931.06;4960862;28;20193;-59
2022/07/08 05:03:31;;;;;;;0.00;0.00;;;;;;;18.33;76.27;101924.78;4966551;28;20042;-59
2022/07/08 05:05:57;;;;;;;0.10;0.10;;;;;;;18.39;76.61;101912.38;4967590;28;20027;-59
2022/07/08 05:08:22;;;;;;;0.10;0.10;;;;;;;18.35;77.38;101917.03;4963246;28;20042;-60
2022/07/08 05:10:48;;;;;;;0.00;0.00;;;;;;;18.47;77.61;101924.16;4965167;28;20039;-59
2022/07/08 05:13:14;;;;;;;0.00;0.00;;;;;;;18.56;77.55;101924.66;4966182;28;20097;-59
2022/07/08 05:15:40;;;;;;;0.00;0.00;;;;;;;18.68;76.86;101930.59;4964184;28;20751;-59
2022/07/08 05:18:06;;;;;;;0.10;0.10;;;;;;;19.12;75.39;101921.53;4959257;28;20613;-60
2022/07/08 05:20:32;;;;;;;0.20;0.10;;;;;;;19.80;72.24;101919.53;4964251;28;20064;-59
2022/07/08 05:22:57;;;;;;;0.00;0.00;;;;;;;20.44;69.90;101925.16;4956235;28;20035;-60
2022/07/08 05:25:23;;;;;;;0.10;0.10;;;;;;;21.10;66.45;101937.25;4965743;28;20112;-60
2022/07/08 05:27:50;;;;;;;0.20;0.05;;;;;;;21.53;64.55;101934.00;4963120;28;20042;-59
2022/07/08 05:30:16;;;;;;;1.20;0.13;;;;;;;21.94;62.41;101941.66;4967212;28;20134;-60
2022/07/08 05:32:41;;;;;;;2.03;0.20;;;;;;;22.12;62.38;101945.88;4957275;28;20389;-60
2022/07/08 05:35:08;;;;;;;0.60;0.30;;;;;;;22.35;60.71;101934.34;4954927;28;20030;-60
2022/07/08 05:37:37;;;;;;;0.00;0.00;;;;;;;22.62;59.96;101940.84;4954634;28;20051;-60
2022/07/08 05:40:07;;;;;;;0.00;0.00;;;;;;;22.86;57.05;101936.31;4961584;28;20413;-60
2022/07/08 05:42:33;;;;;;;0.85;0.47;;;;;;;23.10;56.87;101930.56;4964608;28;20125;-59
2022/07/08 05:44:59;;;;;;;0.20;0.15;;;;;;;23.40;55.84;101932.63;4962027;28;20437;-61
2022/07/08 05:47:24;;;;;;;0.00;0.00;;;;;;;23.52;54.88;101926.56;4952289;28;20057;-60
2022/07/08 05:49:50;;;;;;;0.00;0.00;;;;;;;23.35;55.43;101935.00;4960729;28;20494;-60
2022/07/08 05:52:15;;;;;;;0.35;0.08;;;;;;;23.38;54.71;101928.72;4963073;28;20034;-60
2022/07/08 05:54:45;;;;;;;0.00;0.00;;;;;;;23.61;55.56;101928.81;4957119;28;20038;-60
2022/07/08 05:57:12;;;;;;;0.00;0.00;;;;;;;23.66;55.41;101933.84;4958035;28;20033;-60
2022/07/08 05:59:38;;;;;;;0.00;0.00;;;;;;;23.36;54.67;101931.09;4960850;28;20038;-60
2022/07/08 06:02:04;;;;;;;0.10;0.00;;;;;;;23.12;56.19;101933.69;4964686;28;20092;-60
2022/07/08 06:04:29;;;;;;;0.00;0.00;;;;;;;23.10;56.15;101936.06;4960000;28;20039;-60
2022/07/08 06:06:55;;;;;;;0.25;0.25;;;;;;;22.77;57.23;101934.03;4954836;28;20036;-60
2022/07/08 06:09:21;;;;;;;0.00;0.00;;;;;;;22.75;57.77;101943.84;4959763;28;20098;-60
2022/07/08 06:11:47;;;;;;;0.10;0.10;;;;;;;22.85;57.30;101948.47;4961121;28;20129;-60
2022/07/08 06:14:12;;;;;;;0.00;0.00;;;;;;;22.98;57.13;101960.50;4958181;28;20755;-60
2022/07/08 06:16:38;;;;;;;0.00;0.00;;;;;;;22.93;56.70;101970.00;4959544;28;20517;-60
2022/07/08 06:19:04;;;;;;;0.00;0.00;;;;;;;22.80;57.64;101968.91;4957707;28;20080;-60
2022/07/08 06:21:29;;;;;;;0.35;0.20;;;;;;;22.44;59.31;101967.63;4957221;28;20117;-59
2022/07/08 06:23:55;;;;;;;0.38;0.38;;;;;;;22.18;60.91;101965.44;4951528;28;20122;-60
2022/07/08 06:26:21;;;;;;;0.00;0.00;;;;;;;22.18;61.51;101959.97;4957079;28;20041;-59
2022/07/08 06:28:47;;;;;;;0.10;0.10;;;;;;;22.11;61.08;101968.22;4955536;28;20218;-60
2022/07/08 06:31:13;;;;;;;0.00;0.00;;;;;;;22.04;62.16;101960.81;4958548;28;20035;-60
2022/07/08 06:33:38;;;;;;;1.27;0.10;;;;;;;22.13;62.40;101971.34;4956170;28;20583;-60
2022/07/08 06:36:04;;;;;;;0.30;0.30;;;;;;;22.16;63.58;101976.06;4960023;28;20069;-60
2022/07/08 06:38:30;;;;;;;0.13;0.03;;;;;;;22.22;62.35;101958.72;4953898;28;20034;-59
2022/07/08 06:40:56;;;;;;;0.00;0.00;;;;;;;22.32;61.77;101968.09;4953143;28;20038;-59
2022/07/08 06:43:22;;;;;;;0.00;0.00;;;;;;;22.47;61.58;101969.56;4956867;28;20030;-60
2022/07/08 06:45:49;;;;;;;0.00;0.00;;;;;;;22.59;59.16;101968.34;4970095;28;20386;-60
2022/07/08 06:48:15;;;;;;;0.10;0.00;;;;;;;22.64;57.93;101960.44;4955042;28;20035;-60
2022/07/08 06:50:41;;;;;;;0.05;0.00;;;;;;;22.68;56.89;101955.69;4945529;28;20114;-60
2022/07/08 06:53:07;;;;;;;0.00;0.00;;;;;;;22.82;57.47;101963.03;4953672;28;20041;-60
2022/07/08 06:55:32;;;;;;;0.00;0.00;;;;;;;22.85;58.59;101973.19;4948902;28;20058;-60
2022/07/08 06:57:58;;;;;;;0.00;0.00;;;;;;;22.96;57.99;101971.91;4956164;28;20049;-60
2022/07/08 07:00:24;;;;;;;0.20;0.13;;;;;;;23.12;57.03;101977.66;4969017;28;20066;-60
2022/07/08 07:02:50;;;;;;;0.80;0.10;;;;;;;23.25;56.48;101980.66;4952911;28;20031;-59
2022/07/08 07:05:18;;;;;;;0.20;0.20;;;;;;;23.45;57.69;101978.13;4955014;28;20038;-60
2022/07/08 07:07:44;;;;;;;0.00;0.00;;;;;;;23.59;56.94;101977.97;4953450;28;20579;-60
2022/07/08 07:10:09;;;;;;;0.50;0.50;;;;;;;23.65;56.36;101977.13;4951370;28;20030;-60
2022/07/08 07:12:35;;;;;;;0.00;0.00;;;;;;;23.90;54.78;101985.06;4953145;28;20045;-60
2022/07/08 07:15:01;;;;;;;0.10;0.10;;;;;;;23.94;54.38;101983.78;4953894;28;20047;-60
2022/07/08 07:17:26;;;;;;;0.10;0.10;;;;;;;24.01;54.21;101991.19;4954053;28;20042;-60
2022/07/08 07:19:52;;;;;;;0.00;0.00;;;;;;;23.90;54.55;101985.06;4962735;28;20047;-60
2022/07/08 07:22:18;;;;;;;0.05;0.00;;;;;;;23.77;54.62;101990.31;4950093;28;20266;-60
2022/07/08 07:24:44;;;;;;;0.05;0.05;;;;;;;23.67;54.69;101994.00;4950885;28;20137;-60
2022/07/08 07:27:09;;;;;;;1.00;0.20;;;;;;;23.40;56.09;101997.84;4955903;28;20037;-60
2022/07/08 07:29:35;;;;;;;0.20;0.20;;;;;;;23.21;57.95;102007.41;4953071;28;20490;-59
2022/07/08 07:32:01;;;;;;;0.20;0.20;;;;;;;23.25;56.91;101997.94;4955473;28;20145;-60
2022/07/08 07:34:26;;;;;;;0.10;0.10;;;;;;;23.24;58.18;101992.88;4954176;28;20349;-59
2022/07/08 07:36:52;;;;;;;0.00;0.00;;;;;;;23.14;58.85;101996.50;4962541;28;20046;-60
2022/07/08 07:39:18;;;;;;;0.00;0.00;;;;;;;23.08;60.46;101995.38;4958140;28;20308;-59
2022/07/08 07:41:44;;;;;;;2.13;0.05;;;;;;;23.02;60.69;102008.78;4956305;28;20041;-60
2022/07/08 07:44:09;;;;;;;0.85;0.85;;;;;;;22.90;61.71;102003.78;4958255;28;20042;-60
2022/07/08 07:46:35;;;;;;;0.05;0.05;;;;;;;22.53;63.31;102011.88;4961293;28;20046;-60
2022/07/08 07:49:02;;;;;;;0.95;0.38;;;;;;;22.38;64.98;102016.69;4955449;28;20030;-60
2022/07/08 07:51:28;;;;;;;0.10;0.10;;;;;;;22.34;64.54;102020.63;4956324;28;20034;-60
2022/07/08 07:53:54;;;;;;;0.00;0.00;;;;;;;22.29;64.13;102012.81;4962119;28;20120;-60
2022/07/08 07:56:20;;;;;;;0.00;0.00;;;;;;;22.02;67.20;102012.59;4962791;28;20039;-60
2022/07/08 07:58:46;;;;;;;1.00;0.73;;;;;;;21.96;67.08;102016.13;4956430;28;20050;-59
2022/07/08 08:01:11;;;;;;;0.10;0.10;;;;;;;21.95;66.38;102014.59;4951503;28;20049;-60
2022/07/08 08:03:37;;;;;;;6.47;0.63;;;;;;;21.95;64.69;102018.09;4958627;28;20034;-60
2022/07/08 08:06:04;;;;;;;1.08;0.35;;;;;;;21.86;65.53;102014.22;4949931;28;20495;-60
2022/07/08 08:08:32;;;;;;;1.20;0.65;;;;;;;21.80;65.83;102024.00;4951681;28;20037;-59
2022/07/08 08:10:58;;;;;;;0.75;0.75;;;;;;;21.78;67.21;102040.84;4951373;28;20402;-60
2022/07/08 08:13:24;;;;;;;0.08;0.05;;;;;;;21.69;68.29;102036.97;4953486;28;20386;-59
2022/07/08 08:15:50;;;;;;;0.10;0.10;;;;;;;21.71;68.37;102040.09;4949802;28;20038;-60
2022/07/08 08:18:16;;;;;;;0.10;0.10;;;;;;;21.28;70.16;102036.66;4948536;28;20086;-59
2022/07/08 08:20:42;;;;;;;0.93;0.57;;;;;;;21.41;68.56;102030.38;4953902;28;20053;-60
2022/07/08 08:23:09;;;;;;;0.20;0.10;;;;;;;21.43;68.53;102029.97;4957624;28;20034;-59
2022/07/08 08:25:35;;;;;;;0.00;0.00;;;;;;;21.38;69.88;102025.69;4957226;28;20533;-61
2022/07/08 08:28:03;;;;;;;0.08;0.08;;;;;;;21.43;69.94;102040.94;4967977;28;20149;-59
2022/07/08 08:30:28;;;;;;;0.00;0.00;;;;;;;21.40;69.73;102039.78;4952793;28;20035;-60
2022/07/08 08:32:54;;;;;;;0.10;0.10;;;;;;;21.45;69.22;102052.31;4949561;28;20038;-59
2022/07/08 08:35:20;;;;;;;0.00;0.00;;;;;;;21.24;71.63;102047.63;4948792;28;20392;-59
2022/07/08 08:37:45;;;;;;;0.17;0.13;;;;;;;21.21;73.57;102050.38;4951637;28;20035;-60
2022/07/08 08:40:12;;;;;;;0.00;0.00;;;;;;;21.23;75.21;102050.78;4953450;28;20077;-60
2022/07/08 08:42:39;;;;;;;0.08;0.05;;;;;;;21.14;76.82;102055.84;4949734;28;20040;-60
2022/07/08 08:45:05;;;;;;;0.00;0.00;;;;;;;21.10;79.66;102057.84;4950705;28;20456;-59
2022/07/08 08:47:32;;;;;;;0.30;0.10;;;;;;;21.08;81.38;102060.94;4949748;28;20255;-60
2022/07/08 08:53:03;;;;;;;0.10;0.10;;;;;;;20.95;84.61;102062.47;4849137;29;20861;-60
2022/07/08 08:55:33;;;;;;;0.08;0.08;;;;;;;20.93;85.38;102056.63;4861067;29;20069;-59
2022/07/08 08:58:04;;;;;;;0.20;0.17;;;;;;;20.93;85.76;102055.81;4861265;29;20076;-60
2022/07/08 09:00:31;;;;;;;0.10;0.10;;;;;;;20.90;86.37;102060.16;4861559;29;20044;-59
2022/07/08 09:02:58;;;;;;;0.63;0.57;;;;;;;20.89;86.27;102057.78;4862313;29;20407;-59
2022/07/08 09:05:25;;;;;;;0.00;0.00;;;;;;;20.91;87.17;102056.22;4862690;29;20055;-59
2022/07/08 09:07:51;;;;;;;0.43;0.13;;;;;;;20.90;87.50;102051.94;4859299;29;20033;-60
2022/07/08 09:10:18;;;;;;;0.10;0.00;;;;;;;20.89;87.55;102063.25;4860801;29;20405;-60
2022/07/08 09:13:12;;;;;;;0.65;0.20;;;;;;;20.80;88.78;102060.13;4858308;29;20062;-60
2022/07/08 09:15:40;;;;;;;0.80;0.20;;;;;;;20.81;89.10;102059.72;4857103;29;20472;-60
2022/07/08 09:18:13;;;;;;;0.15;0.15;;;;;;;20.70;89.87;102045.25;4860462;29;20045;-60
2022/07/08 09:20:41;;;;;;;0.00;0.00;;;;;;;20.79;90.28;102048.38;4862289;29;20045;-60
2022/07/08 09:23:35;;;;;;;0.35;0.30;;;;;;;20.81;90.04;102040.56;4860896;29;20064;-59
2022/07/08 09:26:03;;;;;;;1.45;0.47;;;;;;;20.75;90.77;102049.56;4852429;29;20053;-60
2022/07/08 09:28:36;;;;;;;0.10;0.10;;;;;;;20.80;90.35;102047.22;4866342;29;20488;-60
2022/07/08 09:31:11;;;;;;;0.00;0.00;;;;;;;20.73;89.84;102040.94;4959738;28;20031;-60
2022/07/08 09:33:36;;;;;;;0.50;0.30;;;;;;;20.62;91.34;102055.41;4955008;28;20038;-60
2022/07/08 09:36:05;;;;;;;0.00;0.00;;;;;;;20.59;91.69;102050.72;4953006;28;20026;-60
2022/07/08 09:38:35;;;;;;;0.03;0.03;;;;;;;20.63;91.36;102039.78;4962620;28;20043;-60
2022/07/08 09:41:03;;;;;;;0.20;0.20;;;;;;;20.70;91.06;102045.25;4950306;28;20031;-60
2022/07/08 09:43:29;;;;;;;3.90;0.70;;;;;;;20.72;91.33;102029.22;4950587;28;20049;-60
2022/07/08 09:46:05;;;;;;;0.38;0.25;;;;;;;20.91;91.28;102034.31;4946539;28;20863;-60
2022/07/08 09:48:31;;;;;;;1.65;0.45;;;;;;;21.14;90.67;102033.94;4955409;28;20073;-59
2022/07/08 09:50:59;;;;;;;0.08;0.08;;;;;;;21.19;90.98;102026.13;4959624;28;20062;-60
2022/07/08 09:53:26;;;;;;;0.10;0.10;;;;;;;21.22;89.91;102032.75;4948213;28;20038;-60
2022/07/08 09:55:54;;;;;;;0.15;0.15;;;;;;;21.21;89.28;102032.00;4946403;28;20047;-60
2022/07/08 09:58:22;;;;;;;0.15;0.15;;;;;;;21.27;89.77;102030.38;4944245;28;20482;-60
2022/07/08 10:00:49;;;;;;;1.30;0.10;;;;;;;21.24;90.74;102022.19;4948378;28;20462;-60
2022/07/08 10:03:16;;;;;;;0.10;0.10;;;;;;;21.32;90.22;102021.00;4957188;28;20047;-60
2022/07/08 10:05:43;;;;;;;0.00;0.00;;;;;;;21.34;88.99;102029.63;4958028;28;20469;-61
2022/07/08 10:08:09;;;;;;;0.10;0.00;;;;;;;21.28;89.55;102026.50;4962746;28;20161;-60
2022/07/08 10:10:37;;;;;;;0.47;0.13;;;;;;;21.34;88.62;102030.41;4952007;28;20406;-60
2022/07/08 10:13:03;;;;;;;0.45;0.20;;;;;;;21.30;89.29;102013.19;4963021;28;20133;-59
2022/07/08 10:15:31;;;;;;;2.42;0.30;;;;;;;21.33;89.89;102023.34;4943575;28;20473;-60
2022/07/08 10:18:02;;;;;;;0.30;0.30;;;;;;;21.42;89.13;102010.03;4962348;28;20137;-61
2022/07/08 10:20:31;;;;;;;;;;;;;;;21.39;89.93;102021.75;5104053;23;20099;-65
2022/07/08 10:23:04;;;;;;;0.10;0.10;;;;;;;21.40;89.62;102028.03;4995291;28;20494;-65
2022/07/08 10:25:30;;;;;;;0.30;0.30;;;;;;;21.35;89.22;102018.25;5008557;28;20032;-66
2022/07/08 10:28:06;;;;;;;0.10;0.10;;;;;;;21.35;89.63;102022.97;4993522;28;20030;-65
2022/07/08 10:30:44;;;;;;;0.13;0.13;;;;;;;21.35;90.00;102026.47;4997653;28;20053;-67
2022/07/08 10:33:11;;;;;;;0.20;0.08;;;;;;;21.30;89.24;102026.88;4989087;28;20100;-66
2022/07/08 10:35:59;;;;;;;0.10;0.10;;;;;;;21.22;89.19;102022.56;4988228;28;20168;-66
2022/07/08 10:38:40;;;;;;;0.10;0.10;;;;;;;21.17;88.67;102024.94;4980450;28;20038;-66
2022/07/08 10:41:10;;;;;;;0.13;0.10;;;;;;;21.01;89.51;102030.81;4980549;28;20035;-65
2022/07/08 10:43:37;;;;;;;0.10;0.10;;;;;;;20.97;89.28;102031.94;4978812;28;20113;-66
2022/07/08 10:46:10;;;;;;;0.00;0.00;;;;;;;20.92;89.35;102029.63;4982486;28;20026;-65
2022/07/08 10:48:41;;;;;;;0.10;0.10;;;;;;;20.86;90.27;102034.69;4984659;28;20034;-65
2022/07/08 10:51:19;;;;;;;0.00;0.00;;;;;;;20.86;91.10;102042.13;4975533;28;20036;-67
2022/07/08 10:53:51;;;;;;;0.00;0.00;;;;;;;20.87;92.19;102033.53;4965308;28;20096;-68
2022/07/08 10:56:48;;;;;;;0.10;0.10;;;;;;;20.85;91.48;102033.13;4975447;28;20089;-68
2022/07/08 10:59:28;;;;;;;0.52;0.52;;;;;;;21.03;91.59;102027.69;4984564;28;20034;-65
2022/07/08 11:02:16;;;;;;;0.68;0.32;;;;;;;21.20;90.16;102016.72;4981116;28;20129;-65
2022/07/08 11:04:47;;;;;;;0.10;0.10;;;;;;;21.28;90.07;102033.91;4980056;28;20113;-65
2022/07/08 11:07:26;;;;;;;0.80;0.00;;;;;;;21.34;89.46;102035.09;4995445;28;20465;-66
2022/07/08 11:09:57;;;;;;;0.10;0.00;;;;;;;21.67;89.94;102033.84;4981726;28;20038;-67
2022/07/08 11:12:28;;;;;;;0.10;0.05;;;;;;;21.87;88.52;102033.03;4977850;28;20022;-64
2022/07/08 11:14:56;;;;;;;0.00;0.00;;;;;;;22.31;88.19;102029.69;4972221;28;20787;-65
2022/07/08 11:17:24;;;;;;;0.17;0.10;;;;;;;22.54;85.84;102038.16;4994513;28;20046;-66
2022/07/08 11:19:51;;;;;;;0.82;0.80;;;;;;;22.78;84.36;102034.50;4994171;28;20046;-67
2022/07/08 11:22:18;;;;;;;0.03;0.00;;;;;;;22.88;82.25;102032.88;4976121;28;20413;-65
2022/07/08 11:24:45;;;;;;;0.10;0.03;;;;;;;22.97;80.90;102035.94;4981397;28;20520;-67
2022/07/08 11:27:11;;;;;;;0.30;0.30;;;;;;;23.03;79.32;102031.56;4974016;28;20104;-65
2022/07/08 11:29:44;;;;;;;0.03;0.00;;;;;;;22.96;79.24;102035.13;4977909;28;20030;-64
2022/07/08 11:32:10;;;;;;;1.73;0.10;;;;;;;23.07;79.44;102026.81;4983444;28;20089;-66
2022/07/08 11:34:35;;;;;;;0.15;0.10;;;;;;;23.20;79.28;102036.91;4979590;28;20038;-64